Terminal Aerodrome Forecast
Issued by NWS Cleveland, OH

Home | Current Version | Previous Version | Text Only | Print | Product List | Glossary Off
Versions: 1 2 3 4 5 6 7 8 9 10 11 12 13 14 15 16 17 18 19 20 21

000
FTUS41 KCLE 251121
TAFYNG
TAF
KYNG 251121Z 2512/2612 21008KT P6SM OVC045
     FM251800 08008KT P6SM OVC035
      TEMPO 2518/2522 OVC025
     FM252200 10006KT 6SM BR OVC025
     FM260600 12008KT 6SM BR OVC045=

USA.gov is the U.S. government's official web portal to all federal, state and local government web resources and services.